createdAt,value
2022-12-31T00:01:59.509Z,0.70
2022-12-31T00:04:27.344Z,0.43
2022-12-31T00:06:55.179Z,1.15
2022-12-31T00:09:24.383Z,0.95
2022-12-31T00:11:52.158Z,1.13
2022-12-31T00:14:19.901Z,1.05
2022-12-31T00:16:47.958Z,1.30
2022-12-31T00:19:15.946Z,0.82
2022-12-31T00:21:44.627Z,0.52
2022-12-31T00:24:12.763Z,0.20
2022-12-31T00:26:42.003Z,0.50
2022-12-31T00:29:11.158Z,0.85
2022-12-31T00:31:39.953Z,0.60
2022-12-31T00:34:08.015Z,1.65
2022-12-31T00:36:37.660Z,0.93
2022-12-31T00:39:08.237Z,0.50
2022-12-31T00:41:36.223Z,1.20
2022-12-31T00:44:05.524Z,1.15
2022-12-31T00:46:33.604Z,1.15
2022-12-31T00:49:01.589Z,0.80
2022-12-31T00:51:30.421Z,2.25
2022-12-31T00:53:59.021Z,2.33
2022-12-31T00:56:29.573Z,1.33
2022-12-31T00:58:57.564Z,1.33
2022-12-31T01:01:28.325Z,1.98
2022-12-31T01:04:00.380Z,2.15
2022-12-31T01:06:28.377Z,1.37
2022-12-31T01:08:56.363Z,0.93
2022-12-31T01:11:29.168Z,1.60
2022-12-31T01:13:59.409Z,1.40
2022-12-31T01:16:30.454Z,2.10
2022-12-31T01:19:00.034Z,2.03
2022-12-31T01:21:31.589Z,2.72
2022-12-31T01:23:59.745Z,2.05
2022-12-31T01:26:28.500Z,1.40
2022-12-31T01:28:56.568Z,1.52
2022-12-31T01:31:25.755Z,1.25
2022-12-31T01:33:55.499Z,1.83
2022-12-31T01:36:26.113Z,2.25
2022-12-31T01:38:55.362Z,1.25
2022-12-31T01:41:25.820Z,1.48
2022-12-31T01:43:56.432Z,2.50
2022-12-31T01:46:30.256Z,1.48
2022-12-31T01:49:02.957Z,1.10
2022-12-31T01:51:34.484Z,0.60
2022-12-31T01:54:04.910Z,0.95
2022-12-31T01:56:33.792Z,0.70
2022-12-31T01:59:01.958Z,0.38
2022-12-31T02:01:34.017Z,0.90
2022-12-31T02:04:07.915Z,0.38
2022-12-31T02:06:40.226Z,0.40
2022-12-31T02:09:08.782Z,0.75
2022-12-31T02:11:38.164Z,0.55
2022-12-31T02:14:10.643Z,0.77
2022-12-31T02:16:47.121Z,0.52
2022-12-31T02:19:48.908Z,0.30
2022-12-31T02:22:26.067Z,0.10
2022-12-31T02:25:38.067Z,0.38
2022-12-31T02:28:20.988Z,0.70
2022-12-31T02:30:55.495Z,0.10
2022-12-31T02:33:27.615Z,0.40
2022-12-31T02:35:59.089Z,0.50
2022-12-31T02:38:31.125Z,0.10
2022-12-31T02:40:59.871Z,0.80
2022-12-31T02:43:27.735Z,0.30
2022-12-31T02:46:08.961Z,0.30
2022-12-31T02:48:47.739Z,0.70
2022-12-31T02:51:30.303Z,0.17
2022-12-31T02:54:23.651Z,0.20
2022-12-31T02:57:01.740Z,0.63
2022-12-31T02:59:53.537Z,0.93
2022-12-31T03:02:24.900Z,0.45
2022-12-31T03:04:55.826Z,0.10
2022-12-31T03:07:26.346Z,0.20
2022-12-31T03:09:55.021Z,0.25
2022-12-31T03:12:44.847Z,0.30
2022-12-31T03:15:20.779Z,0.40
2022-12-31T03:17:56.911Z,0.28
2022-12-31T03:20:46.145Z,0.20
2022-12-31T03:23:18.998Z,0.73
2022-12-31T03:28:15.951Z,0.28
2022-12-31T03:30:46.566Z,0.38
2022-12-31T03:33:16.644Z,0.95
2022-12-31T03:35:46.233Z,0.10
2022-12-31T03:38:14.170Z,0.40
2022-12-31T03:40:44.828Z,0.35
2022-12-31T03:43:12.645Z,0.60
2022-12-31T03:45:40.562Z,0.20
2022-12-31T03:48:10.572Z,0.10
2022-12-31T03:50:39.774Z,0.10
2022-12-31T03:53:07.981Z,0.10
2022-12-31T03:55:35.855Z,0.50
2022-12-31T03:58:03.659Z,0.63
2022-12-31T04:00:31.815Z,1.17
2022-12-31T04:02:59.713Z,0.63
2022-12-31T04:05:27.610Z,0.43
2022-12-31T04:07:56.817Z,1.08
2022-12-31T04:10:24.588Z,0.10
2022-12-31T04:12:52.474Z,0.28
2022-12-31T04:15:22.119Z,0.30
2022-12-31T04:17:50.269Z,1.00
2022-12-31T04:20:18.247Z,0.45
2022-12-31T04:22:46.064Z,0.13
2022-12-31T04:25:15.387Z,0.43
2022-12-31T04:27:44.477Z,0.15
2022-12-31T04:30:14.247Z,0.28
2022-12-31T04:32:42.174Z,0.30
2022-12-31T04:35:11.505Z,0.30
2022-12-31T04:37:39.633Z,0.17
2022-12-31T04:40:08.916Z,0.22
2022-12-31T04:42:38.288Z,0.68
2022-12-31T04:45:07.088Z,0.60
2022-12-31T04:47:34.956Z,0.52
2022-12-31T04:50:02.724Z,0.60
2022-12-31T04:52:30.641Z,1.48
2022-12-31T04:54:58.397Z,0.52
2022-12-31T04:57:26.204Z,0.50
2022-12-31T04:59:55.599Z,0.55
2022-12-31T05:02:23.465Z,0.73
2022-12-31T05:04:51.352Z,0.28
2022-12-31T05:07:19.556Z,0.55
2022-12-31T05:09:47.381Z,0.43
2022-12-31T05:12:15.178Z,0.68
2022-12-31T05:14:43.047Z,0.70
2022-12-31T05:17:12.198Z,0.85
2022-12-31T05:19:39.980Z,0.20
2022-12-31T05:22:25.324Z,0.75
2022-12-31T05:24:53.174Z,0.40
2022-12-31T05:27:20.988Z,1.60
2022-12-31T05:29:48.999Z,0.55
2022-12-31T05:32:18.215Z,0.20
2022-12-31T05:34:46.076Z,0.63
2022-12-31T05:37:13.831Z,0.98
2022-12-31T05:39:41.599Z,0.70
2022-12-31T05:42:09.379Z,0.55
2022-12-31T05:44:37.253Z,0.38
2022-12-31T05:47:05.307Z,1.13
2022-12-31T05:49:34.466Z,0.90
2022-12-31T05:52:02.261Z,0.65
2022-12-31T05:54:30.117Z,1.30
2022-12-31T05:56:57.919Z,1.38
2022-12-31T05:59:26.286Z,1.70
2022-12-31T06:01:54.145Z,0.60
2022-12-31T06:04:22.151Z,0.85
2022-12-31T06:06:51.360Z,0.70
2022-12-31T06:09:21.285Z,1.88
2022-12-31T06:11:50.379Z,0.28
2022-12-31T06:14:18.428Z,0.93
2022-12-31T06:16:46.180Z,1.10
2022-12-31T06:19:13.949Z,0.98
2022-12-31T06:21:41.714Z,1.48
2022-12-31T06:24:10.886Z,0.93
2022-12-31T06:26:38.725Z,1.02
2022-12-31T06:29:06.852Z,1.85
2022-12-31T06:31:35.013Z,1.02
2022-12-31T06:34:02.978Z,2.00
2022-12-31T06:36:30.864Z,0.50
2022-12-31T06:39:00.525Z,2.53
2022-12-31T06:41:29.723Z,1.17
2022-12-31T06:43:57.591Z,1.00
2022-12-31T06:46:27.085Z,0.90
2022-12-31T06:48:54.958Z,1.48
2022-12-31T06:51:23.412Z,1.48
2022-12-31T06:53:52.629Z,0.85
2022-12-31T06:56:26.519Z,1.63
2022-12-31T06:59:00.717Z,1.45
2022-12-31T07:01:41.011Z,0.88
2022-12-31T07:04:30.693Z,1.55
2022-12-31T07:07:08.087Z,1.65
2022-12-31T07:09:40.627Z,1.77
2022-12-31T07:12:19.854Z,1.42
2022-12-31T07:14:55.648Z,0.98
2022-12-31T07:17:34.241Z,1.25
2022-12-31T07:20:06.400Z,1.48
2022-12-31T07:22:34.837Z,1.42
2022-12-31T07:25:03.356Z,1.15
2022-12-31T07:27:43.778Z,1.40
2022-12-31T07:30:17.175Z,1.40
2022-12-31T07:33:12.066Z,1.55
2022-12-31T07:35:50.551Z,2.80
2022-12-31T07:38:27.031Z,1.17
2022-12-31T07:41:09.820Z,1.10
2022-12-31T07:43:51.379Z,1.08
2022-12-31T07:46:29.406Z,1.10
2022-12-31T07:48:57.906Z,1.25
2022-12-31T07:51:26.508Z,1.05
2022-12-31T07:53:54.394Z,1.90
2022-12-31T07:56:22.263Z,1.48
2022-12-31T07:59:02.421Z,1.75
2022-12-31T08:01:44.594Z,1.15
2022-12-31T08:04:23.728Z,1.63
2022-12-31T08:07:01.577Z,1.35
2022-12-31T08:09:40.464Z,2.13
2022-12-31T08:12:09.619Z,1.10
2022-12-31T08:14:44.139Z,1.38
2022-12-31T08:17:16.885Z,1.15
2022-12-31T08:22:42.139Z,0.88
2022-12-31T08:25:19.382Z,1.63
2022-12-31T08:27:59.438Z,1.85
2022-12-31T08:30:37.048Z,2.08
2022-12-31T08:33:16.368Z,1.17
2022-12-31T08:36:02.493Z,1.58
2022-12-31T08:38:39.719Z,2.30
2022-12-31T08:41:14.764Z,2.35
2022-12-31T08:43:51.179Z,1.23
2022-12-31T08:46:27.154Z,1.17
2022-12-31T08:49:00.021Z,1.67
2022-12-31T08:51:35.589Z,0.95
2022-12-31T08:54:04.259Z,3.15
2022-12-31T08:56:50.498Z,1.40
2022-12-31T08:59:34.951Z,1.67
2022-12-31T09:02:46.150Z,1.70
2022-12-31T09:05:25.879Z,1.85
2022-12-31T09:08:03.889Z,2.40
2022-12-31T09:10:36.014Z,2.00
2022-12-31T09:13:25.984Z,2.22
2022-12-31T09:16:03.637Z,2.33
2022-12-31T09:18:38.961Z,1.58
2022-12-31T09:21:27.147Z,2.00
2022-12-31T09:23:55.651Z,1.73
2022-12-31T09:26:40.399Z,2.83
2022-12-31T09:29:20.128Z,1.42
2022-12-31T09:31:55.159Z,1.40
2022-12-31T09:34:27.524Z,2.17
2022-12-31T09:37:00.891Z,1.60
2022-12-31T09:39:37.372Z,2.15
2022-12-31T09:42:34.181Z,1.45
2022-12-31T09:45:29.528Z,2.47
2022-12-31T09:48:20.136Z,3.45
2022-12-31T09:51:19.172Z,1.50
2022-12-31T09:54:15.048Z,1.73
2022-12-31T09:56:50.142Z,1.55
2022-12-31T09:59:27.787Z,2.55
2022-12-31T10:02:01.687Z,1.65
2022-12-31T10:04:53.473Z,2.65
2022-12-31T10:07:32.824Z,2.15
2022-12-31T10:10:08.529Z,3.35
2022-12-31T10:12:59.725Z,1.27
2022-12-31T10:15:53.694Z,1.67
2022-12-31T10:18:38.424Z,1.33
2022-12-31T10:21:23.659Z,1.27
2022-12-31T10:24:05.901Z,1.63
2022-12-31T10:26:55.711Z,2.05
2022-12-31T10:29:37.991Z,1.63
2022-12-31T10:32:31.824Z,2.83
2022-12-31T10:35:16.372Z,2.20
2022-12-31T10:37:51.350Z,1.40
2022-12-31T10:40:31.055Z,2.28
2022-12-31T10:43:36.470Z,1.20
2022-12-31T10:46:29.942Z,3.08
2022-12-31T10:49:24.583Z,3.20
2022-12-31T10:52:22.808Z,2.03
2022-12-31T10:55:24.827Z,2.13
2022-12-31T10:58:33.363Z,1.63
2022-12-31T11:01:09.451Z,2.15
2022-12-31T11:04:02.261Z,1.75
2022-12-31T11:07:18.900Z,2.03
2022-12-31T11:10:11.774Z,2.60
2022-12-31T11:13:12.355Z,1.75
2022-12-31T11:16:02.196Z,1.23
2022-12-31T11:18:39.340Z,2.83
2022-12-31T11:21:27.811Z,2.85
2022-12-31T11:24:06.339Z,1.85
2022-12-31T11:26:48.970Z,1.92
2022-12-31T11:29:32.033Z,3.45
2022-12-31T11:32:08.771Z,0.85
2022-12-31T11:34:54.389Z,2.17
2022-12-31T11:37:32.827Z,2.13
2022-12-31T11:40:17.123Z,1.90
2022-12-31T11:42:55.411Z,1.48
2022-12-31T11:45:38.780Z,2.00
2022-12-31T11:48:30.067Z,2.80
2022-12-31T11:51:17.642Z,1.55
2022-12-31T11:54:40.020Z,1.35
2022-12-31T11:57:19.019Z,2.75
2022-12-31T11:59:47.885Z,2.63
2022-12-31T12:02:45.060Z,2.42
2022-12-31T12:05:17.709Z,2.17
2022-12-31T12:07:54.976Z,3.10
2022-12-31T12:10:35.539Z,1.50
2022-12-31T12:13:13.623Z,1.88
2022-12-31T12:15:45.818Z,1.90
2022-12-31T12:18:28.209Z,2.20
2022-12-31T12:21:06.811Z,0.85
2022-12-31T12:23:35.016Z,1.42
2022-12-31T12:26:03.127Z,2.03
2022-12-31T12:28:44.510Z,2.60
2022-12-31T12:31:21.753Z,1.25
2022-12-31T12:33:51.129Z,1.75
2022-12-31T12:37:15.453Z,3.42
2022-12-31T12:39:57.761Z,1.45
2022-12-31T12:42:25.751Z,2.28
2022-12-31T12:45:03.230Z,2.10
2022-12-31T12:47:32.275Z,2.20
2022-12-31T12:50:04.906Z,2.45
2022-12-31T12:53:02.366Z,1.98
2022-12-31T12:55:44.409Z,1.50
2022-12-31T12:58:27.737Z,1.30
2022-12-31T13:01:05.162Z,3.03
2022-12-31T13:04:33.566Z,2.38
2022-12-31T13:07:09.875Z,1.65
2022-12-31T13:09:54.157Z,3.35
2022-12-31T13:12:37.888Z,1.95
2022-12-31T13:15:23.251Z,2.05
2022-12-31T13:18:02.283Z,2.17
2022-12-31T13:20:35.806Z,2.70
2022-12-31T13:23:15.161Z,2.53
2022-12-31T13:25:57.036Z,2.70
2022-12-31T13:28:26.062Z,1.52
2022-12-31T13:31:04.845Z,2.45
2022-12-31T13:33:39.358Z,2.60
2022-12-31T13:38:41.647Z,1.77
2022-12-31T13:41:22.998Z,1.85
2022-12-31T13:43:58.038Z,2.88
2022-12-31T13:46:35.065Z,1.63
2022-12-31T13:49:06.482Z,1.55
2022-12-31T13:51:42.501Z,1.83
2022-12-31T13:54:21.388Z,1.95
2022-12-31T13:56:53.181Z,3.30
2022-12-31T13:59:25.153Z,4.00
2022-12-31T14:02:04.402Z,1.85
2022-12-31T14:04:43.649Z,1.60
2022-12-31T14:07:20.696Z,2.28
2022-12-31T14:09:49.151Z,1.48
2022-12-31T14:12:33.329Z,2.05
2022-12-31T14:15:08.892Z,3.58
2022-12-31T14:17:42.514Z,2.38
2022-12-31T14:20:24.635Z,3.22
2022-12-31T14:23:03.766Z,2.73
2022-12-31T14:25:36.358Z,2.95
2022-12-31T14:28:11.220Z,4.05
2022-12-31T14:30:43.595Z,4.50
2022-12-31T14:33:40.601Z,4.32
2022-12-31T14:36:19.165Z,3.90
2022-12-31T14:39:02.136Z,4.13
2022-12-31T14:45:06.053Z,2.60
2022-12-31T14:47:46.097Z,2.28
2022-12-31T14:50:17.193Z,2.63
2022-12-31T14:52:52.056Z,2.28
2022-12-31T14:55:26.661Z,1.67
2022-12-31T14:58:26.500Z,2.67
2022-12-31T15:00:53.799Z,2.03
2022-12-31T15:03:27.295Z,3.15
2022-12-31T15:06:02.927Z,2.97
2022-12-31T15:08:41.854Z,2.17
2022-12-31T15:11:23.672Z,3.33
2022-12-31T15:14:16.284Z,3.20
2022-12-31T15:16:54.232Z,2.95
2022-12-31T15:19:46.155Z,3.03
2022-12-31T15:22:28.423Z,3.30
2022-12-31T15:24:56.615Z,2.42
2022-12-31T15:27:35.220Z,3.08
2022-12-31T15:30:04.021Z,3.67
2022-12-31T15:32:37.922Z,3.05
2022-12-31T15:35:27.068Z,1.52
2022-12-31T15:38:02.891Z,3.88
2022-12-31T15:40:31.152Z,2.75
2022-12-31T15:43:03.948Z,3.63
2022-12-31T15:45:36.340Z,2.97
2022-12-31T15:48:22.087Z,6.00
2022-12-31T15:50:53.029Z,6.72
2022-12-31T15:53:29.792Z,6.55
2022-12-31T15:56:03.030Z,4.72
2022-12-31T15:58:35.655Z,4.13
2022-12-31T16:03:44.869Z,2.35
2022-12-31T16:06:15.716Z,3.58
2022-12-31T16:08:47.501Z,2.65
2022-12-31T16:11:16.224Z,3.57
2022-12-31T16:13:47.026Z,4.57
2022-12-31T16:16:22.669Z,12.60
2022-12-31T16:18:53.143Z,9.73
2022-12-31T16:21:27.189Z,10.82
2022-12-31T16:23:57.952Z,9.20
2022-12-31T16:26:32.429Z,5.82
2022-12-31T16:29:01.153Z,7.90
2022-12-31T16:31:30.448Z,8.82
2022-12-31T16:34:14.754Z,6.93
2022-12-31T16:36:42.919Z,5.07
2022-12-31T16:39:29.596Z,4.82
2022-12-31T16:42:19.786Z,4.50
2022-12-31T16:44:47.785Z,5.10
2022-12-31T16:47:19.876Z,4.60
2022-12-31T16:49:51.941Z,3.78
2022-12-31T16:52:28.091Z,2.72
2022-12-31T16:54:57.750Z,3.72
2022-12-31T16:57:28.314Z,3.65
2022-12-31T17:00:02.256Z,4.43
2022-12-31T17:02:37.827Z,3.60
2022-12-31T17:05:19.695Z,3.53
2022-12-31T17:07:47.455Z,4.43
2022-12-31T17:10:23.314Z,3.30
2022-12-31T17:15:45.691Z,4.35
2022-12-31T17:18:19.279Z,4.35
2022-12-31T17:20:50.907Z,6.30
2022-12-31T17:23:26.321Z,4.85
2022-12-31T17:26:01.618Z,4.65
2022-12-31T17:28:38.727Z,5.45
2022-12-31T17:31:31.258Z,4.97
2022-12-31T17:34:21.587Z,4.47
2022-12-31T17:36:59.214Z,3.22
2022-12-31T17:39:28.603Z,3.80
2022-12-31T17:41:58.629Z,3.28
2022-12-31T17:44:29.099Z,3.40
2022-12-31T17:46:57.002Z,3.35
2022-12-31T17:49:32.378Z,3.58
2022-12-31T17:52:01.572Z,2.58
2022-12-31T17:54:29.345Z,3.85
2022-12-31T17:56:57.349Z,2.75
2022-12-31T17:59:29.609Z,5.40
2022-12-31T18:02:01.060Z,3.78
2022-12-31T18:04:29.374Z,4.57
2022-12-31T18:06:57.147Z,3.47
2022-12-31T18:09:26.466Z,5.85
2022-12-31T18:11:58.230Z,4.10
2022-12-31T18:14:29.188Z,3.65
2022-12-31T18:16:56.946Z,3.35
2022-12-31T18:19:54.424Z,5.00
2022-12-31T18:22:16.764Z,3.85
2022-12-31T18:24:46.125Z,3.08
2022-12-31T18:27:17.484Z,4.60
2022-12-31T18:29:46.171Z,6.35
2022-12-31T18:32:21.045Z,5.00
2022-12-31T18:34:49.277Z,4.03
2022-12-31T18:37:21.742Z,5.60
2022-12-31T18:39:51.559Z,4.65
2022-12-31T18:42:20.172Z,3.70
2022-12-31T18:44:48.018Z,4.60
2022-12-31T18:47:18.730Z,5.13
2022-12-31T18:49:48.535Z,5.25
2022-12-31T18:52:17.494Z,5.13
2022-12-31T18:54:45.283Z,3.33
2022-12-31T18:57:16.082Z,4.35
2022-12-31T18:59:44.070Z,3.03
2022-12-31T19:02:16.677Z,3.40
2022-12-31T19:07:12.469Z,4.00
2022-12-31T19:09:50.076Z,3.92
2022-12-31T19:12:22.487Z,5.72
2022-12-31T19:14:50.497Z,3.70
2022-12-31T19:19:11.524Z,3.60
2022-12-31T19:21:39.944Z,3.78
2022-12-31T19:24:13.889Z,4.88
2022-12-31T19:26:43.528Z,4.00
2022-12-31T19:29:17.667Z,3.78
2022-12-31T19:31:46.058Z,4.95
2022-12-31T19:34:15.231Z,5.90
2022-12-31T19:36:44.209Z,3.97
2022-12-31T19:39:18.306Z,4.95
2022-12-31T19:41:51.708Z,5.45
2022-12-31T19:44:24.237Z,4.32
2022-12-31T19:46:52.048Z,4.63
2022-12-31T19:49:21.281Z,4.22
2022-12-31T19:51:49.215Z,3.85
2022-12-31T19:54:17.028Z,4.32
2022-12-31T19:56:44.817Z,4.55
2022-12-31T19:59:12.863Z,4.00
2022-12-31T20:01:40.795Z,3.45
2022-12-31T20:04:08.743Z,5.82
2022-12-31T20:06:38.050Z,4.28
2022-12-31T20:09:06.591Z,3.47
2022-12-31T20:11:34.502Z,5.35
2022-12-31T20:14:02.317Z,4.88
2022-12-31T20:16:31.725Z,3.92
2022-12-31T20:18:59.836Z,5.47
2022-12-31T20:21:29.706Z,5.07
2022-12-31T20:23:58.964Z,5.03
2022-12-31T20:26:27.076Z,4.40
2022-12-31T20:28:54.933Z,4.18
2022-12-31T20:31:25.995Z,5.38
2022-12-31T20:33:54.964Z,5.65
2022-12-31T20:36:24.127Z,5.28
2022-12-31T20:38:52.252Z,4.22
2022-12-31T20:41:23.205Z,5.20
2022-12-31T20:43:51.409Z,5.10
2022-12-31T20:46:21.527Z,4.75
2022-12-31T20:48:51.089Z,4.25
2022-12-31T20:51:20.328Z,5.70
2022-12-31T20:53:49.300Z,3.33
2022-12-31T20:56:18.204Z,3.75
2022-12-31T20:58:47.687Z,5.30
2022-12-31T21:01:16.833Z,5.95
2022-12-31T21:06:35.704Z,3.92
2022-12-31T21:09:05.883Z,4.57
2022-12-31T21:11:51.161Z,5.18
2022-12-31T21:14:20.955Z,4.93
2022-12-31T21:16:48.890Z,3.83
2022-12-31T21:19:16.733Z,5.45
2022-12-31T21:21:44.521Z,5.55
2022-12-31T21:24:12.468Z,6.05
2022-12-31T21:26:40.237Z,4.05
2022-12-31T21:29:08.106Z,6.85
2022-12-31T21:31:37.252Z,5.38
2022-12-31T21:34:05.089Z,4.55
2022-12-31T21:36:33.029Z,4.80
2022-12-31T21:39:00.943Z,4.82
2022-12-31T21:41:46.123Z,4.00
2022-12-31T21:44:13.939Z,4.18
2022-12-31T21:47:15.874Z,5.07
2022-12-31T21:49:30.896Z,6.57
2022-12-31T21:52:16.489Z,3.97
2022-12-31T21:55:01.810Z,5.75
2022-12-31T21:57:29.635Z,4.65
2022-12-31T22:00:41.806Z,5.15
2022-12-31T22:03:25.123Z,5.40
2022-12-31T22:05:55.724Z,9.77
2022-12-31T22:08:24.151Z,11.68
2022-12-31T22:10:52.995Z,14.52
2022-12-31T22:13:21.289Z,9.40
2022-12-31T22:15:54.039Z,7.97
2022-12-31T22:18:26.179Z,7.55
2022-12-31T22:21:02.057Z,4.97
2022-12-31T22:23:30.204Z,4.72
2022-12-31T22:25:58.062Z,4.82
2022-12-31T22:28:41.368Z,5.72
2022-12-31T22:31:10.188Z,5.15
2022-12-31T22:33:39.615Z,4.95
2022-12-31T22:36:11.946Z,5.32
2022-12-31T22:38:39.915Z,4.88
2022-12-31T22:41:09.546Z,3.95
2022-12-31T22:43:39.790Z,5.35
2022-12-31T22:46:09.879Z,5.25
2022-12-31T22:48:39.518Z,6.65
2022-12-31T22:51:07.817Z,4.18
2022-12-31T22:53:36.218Z,5.22
2022-12-31T22:56:04.139Z,5.10
2022-12-31T22:58:32.195Z,5.30
2022-12-31T23:01:00.101Z,5.28
2022-12-31T23:03:28.108Z,25.25
2022-12-31T23:05:57.347Z,69.65
2022-12-31T23:08:25.293Z,69.65
2022-12-31T23:11:00.264Z,74.75
2022-12-31T23:13:50.719Z,78.43
2022-12-31T23:16:37.107Z,102.35
2022-12-31T23:19:22.982Z,92.82
2022-12-31T23:22:10.293Z,85.00
2022-12-31T23:24:38.882Z,75.40
2022-12-31T23:27:07.930Z,98.80
2022-12-31T23:29:43.993Z,82.30
2022-12-31T23:32:14.970Z,51.60
2022-12-31T23:34:44.247Z,49.55
2022-12-31T23:37:14.118Z,60.05
2022-12-31T23:39:42.513Z,72.97
2022-12-31T23:42:10.367Z,63.25
2022-12-31T23:44:38.175Z,70.07
2022-12-31T23:47:06.127Z,50.05
2022-12-31T23:49:33.898Z,41.72
2022-12-31T23:52:01.783Z,33.35
2022-12-31T23:54:30.947Z,31.27
2022-12-31T23:56:58.765Z,28.10
2022-12-31T23:59:26.552Z,25.58
